sensor_id;sensor_type;location;lat;lon;timestamp;P1;durP1;ratioP1;P2;durP2;ratioP2
13061;SDS011;6597;52.218;9.882;2023-06-22T00:01:10;9.30;;;6.00;;
13061;SDS011;6597;52.218;9.882;2023-06-22T00:03:37;11.40;;;6.15;;
13061;SDS011;6597;52.218;9.882;2023-06-22T00:06:03;7.57;;;5.25;;
13061;SDS011;6597;52.218;9.882;2023-06-22T00:08:30;12.50;;;5.93;;
13061;SDS011;6597;52.218;9.882;2023-06-22T00:10:58;9.18;;;5.32;;
13061;SDS011;6597;52.218;9.882;2023-06-22T00:13:24;7.10;;;5.40;;
13061;SDS011;6597;52.218;9.882;2023-06-22T00:15:51;7.50;;;5.35;;
13061;SDS011;6597;52.218;9.882;2023-06-22T00:18:17;7.60;;;5.18;;
13061;SDS011;6597;52.218;9.882;2023-06-22T00:20:44;8.32;;;5.47;;
13061;SDS011;6597;52.218;9.882;2023-06-22T00:23:11;9.82;;;6.18;;
13061;SDS011;6597;52.218;9.882;2023-06-22T00:25:39;9.57;;;6.05;;
13061;SDS011;6597;52.218;9.882;2023-06-22T00:28:07;10.02;;;6.45;;
13061;SDS011;6597;52.218;9.882;2023-06-22T00:30:34;11.45;;;6.22;;
13061;SDS011;6597;52.218;9.882;2023-06-22T00:33:01;14.20;;;6.90;;
13061;SDS011;6597;52.218;9.882;2023-06-22T00:35:28;10.38;;;6.03;;
13061;SDS011;6597;52.218;9.882;2023-06-22T00:37:55;9.32;;;6.53;;
13061;SDS011;6597;52.218;9.882;2023-06-22T00:40:25;10.82;;;6.85;;
13061;SDS011;6597;52.218;9.882;2023-06-22T00:42:52;15.60;;;7.15;;
13061;SDS011;6597;52.218;9.882;2023-06-22T00:45:20;9.25;;;6.70;;
13061;SDS011;6597;52.218;9.882;2023-06-22T00:47:49;13.82;;;6.80;;
13061;SDS011;6597;52.218;9.882;2023-06-22T00:50:18;14.07;;;6.70;;
13061;SDS011;6597;52.218;9.882;2023-06-22T00:52:47;13.25;;;6.88;;
13061;SDS011;6597;52.218;9.882;2023-06-22T00:55:17;10.10;;;5.97;;
13061;SDS011;6597;52.218;9.882;2023-06-22T00:57:45;7.65;;;5.97;;
13061;SDS011;6597;52.218;9.882;2023-06-22T01:00:13;8.60;;;6.35;;
13061;SDS011;6597;52.218;9.882;2023-06-22T01:02:46;10.57;;;6.65;;
13061;SDS011;6597;52.218;9.882;2023-06-22T01:05:17;10.57;;;5.88;;
13061;SDS011;6597;52.218;9.882;2023-06-22T01:07:47;8.48;;;6.18;;
13061;SDS011;6597;52.218;9.882;2023-06-22T01:10:25;10.40;;;6.57;;
13061;SDS011;6597;52.218;9.882;2023-06-22T01:12:58;12.18;;;6.43;;
13061;SDS011;6597;52.218;9.882;2023-06-22T01:15:29;8.90;;;6.20;;
13061;SDS011;6597;52.218;9.882;2023-06-22T01:18:01;12.63;;;7.28;;
13061;SDS011;6597;52.218;9.882;2023-06-22T01:20:30;9.82;;;6.28;;
13061;SDS011;6597;52.218;9.882;2023-06-22T01:23:03;9.55;;;6.30;;
13061;SDS011;6597;52.218;9.882;2023-06-22T01:25:36;14.80;;;7.05;;
13061;SDS011;6597;52.218;9.882;2023-06-22T01:28:16;22.73;;;7.32;;
13061;SDS011;6597;52.218;9.882;2023-06-22T01:30:52;17.48;;;6.95;;
13061;SDS011;6597;52.218;9.882;2023-06-22T01:33:28;14.88;;;6.90;;
13061;SDS011;6597;52.218;9.882;2023-06-22T01:35:57;11.43;;;6.10;;
13061;SDS011;6597;52.218;9.882;2023-06-22T01:38:25;12.98;;;6.88;;
13061;SDS011;6597;52.218;9.882;2023-06-22T01:40:54;12.48;;;6.40;;
13061;SDS011;6597;52.218;9.882;2023-06-22T01:43:23;13.48;;;7.63;;
13061;SDS011;6597;52.218;9.882;2023-06-22T01:45:52;12.73;;;7.47;;
13061;SDS011;6597;52.218;9.882;2023-06-22T01:48:20;11.73;;;7.22;;
13061;SDS011;6597;52.218;9.882;2023-06-22T01:50:47;11.75;;;7.50;;
13061;SDS011;6597;52.218;9.882;2023-06-22T01:53:14;16.75;;;7.60;;
13061;SDS011;6597;52.218;9.882;2023-06-22T01:55:40;13.52;;;7.50;;
13061;SDS011;6597;52.218;9.882;2023-06-22T01:58:07;12.30;;;7.80;;
13061;SDS011;6597;52.218;9.882;2023-06-22T02:00:35;16.23;;;8.10;;
13061;SDS011;6597;52.218;9.882;2023-06-22T02:03:08;11.88;;;7.20;;
13061;SDS011;6597;52.218;9.882;2023-06-22T02:05:38;11.98;;;7.57;;
13061;SDS011;6597;52.218;9.882;2023-06-22T02:08:09;14.07;;;7.82;;
13061;SDS011;6597;52.218;9.882;2023-06-22T02:10:41;9.40;;;7.00;;
13061;SDS011;6597;52.218;9.882;2023-06-22T02:13:10;15.90;;;8.45;;
13061;SDS011;6597;52.218;9.882;2023-06-22T02:15:37;11.18;;;7.40;;
13061;SDS011;6597;52.218;9.882;2023-06-22T02:18:04;12.27;;;7.90;;
13061;SDS011;6597;52.218;9.882;2023-06-22T02:20:34;9.95;;;7.55;;
13061;SDS011;6597;52.218;9.882;2023-06-22T02:23:02;13.38;;;7.38;;
13061;SDS011;6597;52.218;9.882;2023-06-22T02:25:29;14.82;;;7.18;;
13061;SDS011;6597;52.218;9.882;2023-06-22T02:27:56;11.38;;;6.38;;
13061;SDS011;6597;52.218;9.882;2023-06-22T02:30:23;13.15;;;7.25;;
13061;SDS011;6597;52.218;9.882;2023-06-22T02:32:49;15.40;;;7.57;;
13061;SDS011;6597;52.218;9.882;2023-06-22T02:35:24;12.60;;;7.63;;
13061;SDS011;6597;52.218;9.882;2023-06-22T02:37:51;14.95;;;8.18;;
13061;SDS011;6597;52.218;9.882;2023-06-22T02:40:18;14.52;;;9.35;;
13061;SDS011;6597;52.218;9.882;2023-06-22T02:42:44;16.77;;;7.55;;
13061;SDS011;6597;52.218;9.882;2023-06-22T02:45:11;19.45;;;7.90;;
13061;SDS011;6597;52.218;9.882;2023-06-22T02:47:37;12.75;;;8.43;;
13061;SDS011;6597;52.218;9.882;2023-06-22T02:50:04;15.05;;;7.78;;
13061;SDS011;6597;52.218;9.882;2023-06-22T02:52:34;19.00;;;7.70;;
13061;SDS011;6597;52.218;9.882;2023-06-22T02:55:01;16.50;;;8.27;;
13061;SDS011;6597;52.218;9.882;2023-06-22T02:57:29;12.15;;;7.97;;
13061;SDS011;6597;52.218;9.882;2023-06-22T02:59:57;18.27;;;8.63;;
13061;SDS011;6597;52.218;9.882;2023-06-22T03:02:23;14.20;;;8.10;;
13061;SDS011;6597;52.218;9.882;2023-06-22T03:04:51;13.73;;;8.50;;
13061;SDS011;6597;52.218;9.882;2023-06-22T03:07:19;14.48;;;8.50;;
13061;SDS011;6597;52.218;9.882;2023-06-22T03:09:49;15.55;;;8.95;;
13061;SDS011;6597;52.218;9.882;2023-06-22T03:12:15;13.50;;;7.87;;
13061;SDS011;6597;52.218;9.882;2023-06-22T03:14:49;11.85;;;8.35;;
13061;SDS011;6597;52.218;9.882;2023-06-22T03:17:16;12.98;;;8.98;;
13061;SDS011;6597;52.218;9.882;2023-06-22T03:19:42;14.65;;;8.48;;
13061;SDS011;6597;52.218;9.882;2023-06-22T03:22:09;9.75;;;7.63;;
13061;SDS011;6597;52.218;9.882;2023-06-22T03:24:35;15.60;;;9.18;;
13061;SDS011;6597;52.218;9.882;2023-06-22T03:27:05;15.00;;;8.70;;
13061;SDS011;6597;52.218;9.882;2023-06-22T03:29:33;14.98;;;8.70;;
13061;SDS011;6597;52.218;9.882;2023-06-22T03:32:00;13.82;;;8.60;;
13061;SDS011;6597;52.218;9.882;2023-06-22T03:34:27;12.02;;;8.15;;
13061;SDS011;6597;52.218;9.882;2023-06-22T03:36:53;15.90;;;8.48;;
13061;SDS011;6597;52.218;9.882;2023-06-22T03:39:20;14.98;;;8.00;;
13061;SDS011;6597;52.218;9.882;2023-06-22T03:41:47;15.30;;;8.05;;
13061;SDS011;6597;52.218;9.882;2023-06-22T03:44:15;13.82;;;8.65;;
13061;SDS011;6597;52.218;9.882;2023-06-22T03:46:42;15.02;;;9.05;;
13061;SDS011;6597;52.218;9.882;2023-06-22T03:49:08;14.60;;;8.70;;
13061;SDS011;6597;52.218;9.882;2023-06-22T03:51:35;21.23;;;8.10;;
13061;SDS011;6597;52.218;9.882;2023-06-22T03:54:01;13.07;;;7.80;;
13061;SDS011;6597;52.218;9.882;2023-06-22T03:56:28;20.17;;;8.52;;
13061;SDS011;6597;52.218;9.882;2023-06-22T03:58:54;10.57;;;7.60;;
13061;SDS011;6597;52.218;9.882;2023-06-22T04:01:22;15.30;;;7.97;;
13061;SDS011;6597;52.218;9.882;2023-06-22T04:03:49;13.68;;;8.05;;
13061;SDS011;6597;52.218;9.882;2023-06-22T04:06:16;20.00;;;9.48;;
13061;SDS011;6597;52.218;9.882;2023-06-22T04:08:42;23.75;;;8.38;;
13061;SDS011;6597;52.218;9.882;2023-06-22T04:11:13;17.77;;;8.63;;
13061;SDS011;6597;52.218;9.882;2023-06-22T04:13:39;17.65;;;9.02;;
13061;SDS011;6597;52.218;9.882;2023-06-22T04:16:06;15.52;;;9.07;;
13061;SDS011;6597;52.218;9.882;2023-06-22T04:18:34;17.13;;;9.50;;
13061;SDS011;6597;52.218;9.882;2023-06-22T04:21:01;18.52;;;8.75;;
13061;SDS011;6597;52.218;9.882;2023-06-22T04:23:27;21.00;;;8.93;;
13061;SDS011;6597;52.218;9.882;2023-06-22T04:25:54;15.18;;;9.27;;
13061;SDS011;6597;52.218;9.882;2023-06-22T04:28:21;15.48;;;9.32;;
13061;SDS011;6597;52.218;9.882;2023-06-22T04:30:48;14.93;;;10.05;;
13061;SDS011;6597;52.218;9.882;2023-06-22T04:33:16;22.15;;;10.68;;
13061;SDS011;6597;52.218;9.882;2023-06-22T04:35:45;18.67;;;10.75;;
13061;SDS011;6597;52.218;9.882;2023-06-22T04:38:12;23.30;;;11.73;;
13061;SDS011;6597;52.218;9.882;2023-06-22T04:40:39;20.30;;;10.98;;
13061;SDS011;6597;52.218;9.882;2023-06-22T04:43:05;21.83;;;10.98;;
13061;SDS011;6597;52.218;9.882;2023-06-22T04:45:32;20.90;;;11.90;;
13061;SDS011;6597;52.218;9.882;2023-06-22T04:48:00;17.40;;;11.60;;
13061;SDS011;6597;52.218;9.882;2023-06-22T04:50:27;18.75;;;12.38;;
13061;SDS011;6597;52.218;9.882;2023-06-22T04:52:55;17.42;;;11.82;;
13061;SDS011;6597;52.218;9.882;2023-06-22T04:55:21;20.25;;;11.10;;
13061;SDS011;6597;52.218;9.882;2023-06-22T04:57:48;18.52;;;11.57;;
13061;SDS011;6597;52.218;9.882;2023-06-22T05:00:15;21.77;;;12.45;;
13061;SDS011;6597;52.218;9.882;2023-06-22T05:02:43;20.65;;;12.00;;
13061;SDS011;6597;52.218;9.882;2023-06-22T05:05:11;19.63;;;11.88;;
13061;SDS011;6597;52.218;9.882;2023-06-22T05:07:39;22.45;;;12.68;;
13061;SDS011;6597;52.218;9.882;2023-06-22T05:10:10;23.98;;;12.60;;
13061;SDS011;6597;52.218;9.882;2023-06-22T05:12:38;20.15;;;11.88;;
13061;SDS011;6597;52.218;9.882;2023-06-22T05:15:05;18.00;;;11.93;;
13061;SDS011;6597;52.218;9.882;2023-06-22T05:17:34;20.35;;;12.35;;
13061;SDS011;6597;52.218;9.882;2023-06-22T05:20:01;15.60;;;11.23;;
13061;SDS011;6597;52.218;9.882;2023-06-22T05:22:28;24.52;;;12.57;;
13061;SDS011;6597;52.218;9.882;2023-06-22T05:24:55;19.27;;;12.07;;
13061;SDS011;6597;52.218;9.882;2023-06-22T05:27:22;18.80;;;12.13;;
13061;SDS011;6597;52.218;9.882;2023-06-22T05:29:49;17.25;;;11.82;;
13061;SDS011;6597;52.218;9.882;2023-06-22T05:32:15;20.70;;;12.25;;
13061;SDS011;6597;52.218;9.882;2023-06-22T05:34:42;19.90;;;12.18;;
13061;SDS011;6597;52.218;9.882;2023-06-22T05:37:08;17.83;;;11.07;;
13061;SDS011;6597;52.218;9.882;2023-06-22T05:39:35;22.88;;;11.73;;
13061;SDS011;6597;52.218;9.882;2023-06-22T05:42:04;15.93;;;11.80;;
13061;SDS011;6597;52.218;9.882;2023-06-22T05:44:32;21.27;;;12.13;;
13061;SDS011;6597;52.218;9.882;2023-06-22T05:46:59;16.98;;;10.95;;
13061;SDS011;6597;52.218;9.882;2023-06-22T05:49:26;16.90;;;11.20;;
13061;SDS011;6597;52.218;9.882;2023-06-22T05:51:54;18.20;;;11.27;;
13061;SDS011;6597;52.218;9.882;2023-06-22T05:54:21;17.98;;;10.60;;
13061;SDS011;6597;52.218;9.882;2023-06-22T05:56:48;17.88;;;10.82;;
13061;SDS011;6597;52.218;9.882;2023-06-22T05:59:14;18.70;;;10.98;;
13061;SDS011;6597;52.218;9.882;2023-06-22T06:01:42;21.85;;;10.48;;
13061;SDS011;6597;52.218;9.882;2023-06-22T06:04:09;18.33;;;10.02;;
13061;SDS011;6597;52.218;9.882;2023-06-22T06:06:35;13.68;;;9.20;;
13061;SDS011;6597;52.218;9.882;2023-06-22T06:09:03;16.92;;;9.60;;
13061;SDS011;6597;52.218;9.882;2023-06-22T06:11:30;14.05;;;9.75;;
13061;SDS011;6597;52.218;9.882;2023-06-22T06:13:56;14.70;;;9.75;;
13061;SDS011;6597;52.218;9.882;2023-06-22T06:16:23;15.30;;;9.30;;
13061;SDS011;6597;52.218;9.882;2023-06-22T06:18:51;16.73;;;10.23;;
13061;SDS011;6597;52.218;9.882;2023-06-22T06:21:19;20.00;;;9.32;;
13061;SDS011;6597;52.218;9.882;2023-06-22T06:23:46;16.58;;;9.25;;
13061;SDS011;6597;52.218;9.882;2023-06-22T06:26:13;13.00;;;8.98;;
13061;SDS011;6597;52.218;9.882;2023-06-22T06:28:41;17.42;;;9.20;;
13061;SDS011;6597;52.218;9.882;2023-06-22T06:31:08;21.65;;;8.95;;
13061;SDS011;6597;52.218;9.882;2023-06-22T06:33:35;11.05;;;8.60;;
13061;SDS011;6597;52.218;9.882;2023-06-22T06:36:03;16.10;;;9.20;;
13061;SDS011;6597;52.218;9.882;2023-06-22T06:38:31;12.70;;;8.90;;
13061;SDS011;6597;52.218;9.882;2023-06-22T06:40:58;17.67;;;9.50;;
13061;SDS011;6597;52.218;9.882;2023-06-22T06:43:24;23.30;;;9.52;;
13061;SDS011;6597;52.218;9.882;2023-06-22T06:45:51;17.92;;;8.55;;
13061;SDS011;6597;52.218;9.882;2023-06-22T06:48:17;14.23;;;8.98;;
13061;SDS011;6597;52.218;9.882;2023-06-22T06:50:44;20.83;;;9.43;;
13061;SDS011;6597;52.218;9.882;2023-06-22T06:53:12;14.75;;;9.43;;
13061;SDS011;6597;52.218;9.882;2023-06-22T06:55:39;12.98;;;8.48;;
13061;SDS011;6597;52.218;9.882;2023-06-22T06:58:05;14.35;;;8.48;;
13061;SDS011;6597;52.218;9.882;2023-06-22T07:00:35;11.30;;;8.13;;
13061;SDS011;6597;52.218;9.882;2023-06-22T07:03:02;10.38;;;7.97;;
13061;SDS011;6597;52.218;9.882;2023-06-22T07:05:28;12.68;;;7.10;;
13061;SDS011;6597;52.218;9.882;2023-06-22T07:07:55;12.35;;;7.45;;
13061;SDS011;6597;52.218;9.882;2023-06-22T07:10:23;9.77;;;7.10;;
13061;SDS011;6597;52.218;9.882;2023-06-22T07:12:49;14.45;;;8.02;;
13061;SDS011;6597;52.218;9.882;2023-06-22T07:15:16;13.52;;;7.72;;
13061;SDS011;6597;52.218;9.882;2023-06-22T07:17:42;9.95;;;7.35;;
13061;SDS011;6597;52.218;9.882;2023-06-22T07:20:09;11.10;;;7.30;;
13061;SDS011;6597;52.218;9.882;2023-06-22T07:22:37;10.43;;;7.53;;
13061;SDS011;6597;52.218;9.882;2023-06-22T07:25:04;12.98;;;6.90;;
13061;SDS011;6597;52.218;9.882;2023-06-22T07:27:36;11.52;;;7.55;;
13061;SDS011;6597;52.218;9.882;2023-06-22T07:30:04;11.35;;;7.10;;
13061;SDS011;6597;52.218;9.882;2023-06-22T07:32:31;8.43;;;6.72;;
13061;SDS011;6597;52.218;9.882;2023-06-22T07:34:58;9.60;;;6.82;;
13061;SDS011;6597;52.218;9.882;2023-06-22T07:37:25;14.05;;;7.32;;
13061;SDS011;6597;52.218;9.882;2023-06-22T07:39:52;10.45;;;6.43;;
13061;SDS011;6597;52.218;9.882;2023-06-22T07:42:23;11.20;;;6.90;;
13061;SDS011;6597;52.218;9.882;2023-06-22T07:44:51;12.00;;;6.82;;
13061;SDS011;6597;52.218;9.882;2023-06-22T07:47:18;8.95;;;6.35;;
13061;SDS011;6597;52.218;9.882;2023-06-22T07:49:45;11.25;;;7.03;;
13061;SDS011;6597;52.218;9.882;2023-06-22T07:52:11;10.00;;;6.95;;
13061;SDS011;6597;52.218;9.882;2023-06-22T07:54:38;11.02;;;7.10;;
13061;SDS011;6597;52.218;9.882;2023-06-22T07:57:05;10.70;;;7.15;;
13061;SDS011;6597;52.218;9.882;2023-06-22T07:59:32;12.18;;;6.97;;
13061;SDS011;6597;52.218;9.882;2023-06-22T08:02:00;13.30;;;6.88;;
13061;SDS011;6597;52.218;9.882;2023-06-22T08:04:28;10.05;;;6.82;;
13061;SDS011;6597;52.218;9.882;2023-06-22T08:06:56;13.82;;;7.38;;
13061;SDS011;6597;52.218;9.882;2023-06-22T08:09:22;11.10;;;6.93;;
13061;SDS011;6597;52.218;9.882;2023-06-22T08:11:49;10.35;;;7.10;;
13061;SDS011;6597;52.218;9.882;2023-06-22T08:14:15;10.23;;;7.80;;
13061;SDS011;6597;52.218;9.882;2023-06-22T08:16:42;11.13;;;7.57;;
13061;SDS011;6597;52.218;9.882;2023-06-22T08:19:10;10.13;;;7.55;;
13061;SDS011;6597;52.218;9.882;2023-06-22T08:21:36;10.13;;;6.88;;
13061;SDS011;6597;52.218;9.882;2023-06-22T08:24:03;12.43;;;6.53;;
13061;SDS011;6597;52.218;9.882;2023-06-22T08:26:30;11.30;;;7.65;;
13061;SDS011;6597;52.218;9.882;2023-06-22T08:29:01;13.57;;;7.55;;
13061;SDS011;6597;52.218;9.882;2023-06-22T08:31:27;11.45;;;7.65;;
13061;SDS011;6597;52.218;9.882;2023-06-22T08:33:54;13.13;;;7.93;;
13061;SDS011;6597;52.218;9.882;2023-06-22T08:36:22;9.23;;;6.97;;
13061;SDS011;6597;52.218;9.882;2023-06-22T08:38:48;13.20;;;7.32;;
13061;SDS011;6597;52.218;9.882;2023-06-22T08:41:16;10.38;;;7.35;;
13061;SDS011;6597;52.218;9.882;2023-06-22T08:43:42;9.40;;;6.57;;
13061;SDS011;6597;52.218;9.882;2023-06-22T08:46:09;16.75;;;6.90;;
13061;SDS011;6597;52.218;9.882;2023-06-22T08:48:36;14.00;;;7.90;;
13061;SDS011;6597;52.218;9.882;2023-06-22T08:51:04;13.43;;;7.63;;
13061;SDS011;6597;52.218;9.882;2023-06-22T08:53:32;11.23;;;6.80;;
13061;SDS011;6597;52.218;9.882;2023-06-22T08:56:00;9.27;;;7.13;;
13061;SDS011;6597;52.218;9.882;2023-06-22T08:58:26;14.02;;;8.07;;
13061;SDS011;6597;52.218;9.882;2023-06-22T09:00:53;10.48;;;7.03;;
13061;SDS011;6597;52.218;9.882;2023-06-22T09:03:19;14.80;;;7.50;;
13061;SDS011;6597;52.218;9.882;2023-06-22T09:05:46;11.35;;;7.57;;
13061;SDS011;6597;52.218;9.882;2023-06-22T09:08:13;9.48;;;7.20;;
13061;SDS011;6597;52.218;9.882;2023-06-22T09:10:40;13.48;;;7.72;;
13061;SDS011;6597;52.218;9.882;2023-06-22T09:13:07;11.68;;;7.68;;
13061;SDS011;6597;52.218;9.882;2023-06-22T09:15:34;14.40;;;8.55;;
13061;SDS011;6597;52.218;9.882;2023-06-22T09:18:00;10.82;;;7.75;;
13061;SDS011;6597;52.218;9.882;2023-06-22T09:20:27;14.90;;;8.43;;
13061;SDS011;6597;52.218;9.882;2023-06-22T09:22:54;17.80;;;8.60;;
13061;SDS011;6597;52.218;9.882;2023-06-22T09:25:20;12.57;;;8.35;;
13061;SDS011;6597;52.218;9.882;2023-06-22T09:27:48;11.32;;;7.82;;
13061;SDS011;6597;52.218;9.882;2023-06-22T09:30:15;15.20;;;8.68;;
13061;SDS011;6597;52.218;9.882;2023-06-22T09:32:41;17.77;;;8.57;;
13061;SDS011;6597;52.218;9.882;2023-06-22T09:35:09;13.20;;;8.68;;
13061;SDS011;6597;52.218;9.882;2023-06-22T09:37:37;17.33;;;9.10;;
13061;SDS011;6597;52.218;9.882;2023-06-22T09:40:05;12.80;;;8.38;;
13061;SDS011;6597;52.218;9.882;2023-06-22T09:42:36;11.80;;;8.35;;
13061;SDS011;6597;52.218;9.882;2023-06-22T09:45:04;14.15;;;7.95;;
13061;SDS011;6597;52.218;9.882;2023-06-22T09:47:31;15.02;;;8.60;;
13061;SDS011;6597;52.218;9.882;2023-06-22T09:49:58;13.70;;;8.63;;
13061;SDS011;6597;52.218;9.882;2023-06-22T09:52:25;13.77;;;8.40;;
13061;SDS011;6597;52.218;9.882;2023-06-22T09:54:51;18.23;;;9.35;;
13061;SDS011;6597;52.218;9.882;2023-06-22T09:57:18;12.82;;;8.93;;
13061;SDS011;6597;52.218;9.882;2023-06-22T09:59:44;14.70;;;8.80;;
13061;SDS011;6597;52.218;9.882;2023-06-22T10:02:12;16.13;;;9.52;;
13061;SDS011;6597;52.218;9.882;2023-06-22T10:04:39;16.95;;;10.80;;
13061;SDS011;6597;52.218;9.882;2023-06-22T10:07:05;12.55;;;9.65;;
13061;SDS011;6597;52.218;9.882;2023-06-22T10:09:32;15.32;;;10.52;;
13061;SDS011;6597;52.218;9.882;2023-06-22T10:11:59;13.40;;;10.05;;
13061;SDS011;6597;52.218;9.882;2023-06-22T10:14:25;15.70;;;10.85;;
13061;SDS011;6597;52.218;9.882;2023-06-22T10:16:54;17.05;;;10.18;;
13061;SDS011;6597;52.218;9.882;2023-06-22T10:19:22;18.98;;;11.20;;
13061;SDS011;6597;52.218;9.882;2023-06-22T10:21:49;20.10;;;11.85;;
13061;SDS011;6597;52.218;9.882;2023-06-22T10:24:15;16.83;;;10.75;;
13061;SDS011;6597;52.218;9.882;2023-06-22T10:26:42;20.17;;;11.77;;
13061;SDS011;6597;52.218;9.882;2023-06-22T10:29:08;17.30;;;10.80;;
13061;SDS011;6597;52.218;9.882;2023-06-22T10:31:35;18.48;;;11.55;;
13061;SDS011;6597;52.218;9.882;2023-06-22T10:34:02;19.45;;;11.45;;
13061;SDS011;6597;52.218;9.882;2023-06-22T10:36:29;19.95;;;11.38;;
13061;SDS011;6597;52.218;9.882;2023-06-22T10:38:56;18.15;;;11.65;;
13061;SDS011;6597;52.218;9.882;2023-06-22T10:41:24;18.13;;;12.23;;
13061;SDS011;6597;52.218;9.882;2023-06-22T10:43:51;21.83;;;11.55;;
13061;SDS011;6597;52.218;9.882;2023-06-22T10:46:17;19.00;;;11.50;;
13061;SDS011;6597;52.218;9.882;2023-06-22T10:48:44;17.45;;;11.15;;
13061;SDS011;6597;52.218;9.882;2023-06-22T10:51:10;18.08;;;11.50;;
13061;SDS011;6597;52.218;9.882;2023-06-22T10:53:38;18.38;;;11.93;;
13061;SDS011;6597;52.218;9.882;2023-06-22T10:56:04;17.90;;;11.70;;
13061;SDS011;6597;52.218;9.882;2023-06-22T10:58:31;16.45;;;11.00;;
13061;SDS011;6597;52.218;9.882;2023-06-22T11:00:57;19.52;;;12.02;;
13061;SDS011;6597;52.218;9.882;2023-06-22T11:03:25;16.92;;;11.05;;
13061;SDS011;6597;52.218;9.882;2023-06-22T11:05:51;18.08;;;11.30;;
13061;SDS011;6597;52.218;9.882;2023-06-22T11:08:18;19.27;;;11.32;;
13061;SDS011;6597;52.218;9.882;2023-06-22T11:10:45;16.85;;;11.68;;
13061;SDS011;6597;52.218;9.882;2023-06-22T11:13:12;18.42;;;11.45;;
13061;SDS011;6597;52.218;9.882;2023-06-22T11:15:39;17.63;;;12.07;;
13061;SDS011;6597;52.218;9.882;2023-06-22T11:18:06;15.25;;;11.50;;
13061;SDS011;6597;52.218;9.882;2023-06-22T11:20:33;17.50;;;11.77;;
13061;SDS011;6597;52.218;9.882;2023-06-22T11:23:03;17.80;;;11.40;;
13061;SDS011;6597;52.218;9.882;2023-06-22T11:25:30;19.90;;;12.13;;
13061;SDS011;6597;52.218;9.882;2023-06-22T11:27:58;22.02;;;12.13;;
13061;SDS011;6597;52.218;9.882;2023-06-22T11:30:24;18.55;;;11.93;;
13061;SDS011;6597;52.218;9.882;2023-06-22T11:32:51;20.52;;;13.32;;
13061;SDS011;6597;52.218;9.882;2023-06-22T11:35:17;20.83;;;12.50;;
13061;SDS011;6597;52.218;9.882;2023-06-22T11:37:44;22.45;;;11.90;;
13061;SDS011;6597;52.218;9.882;2023-06-22T11:40:11;19.67;;;12.20;;
13061;SDS011;6597;52.218;9.882;2023-06-22T11:42:38;19.33;;;13.05;;
13061;SDS011;6597;52.218;9.882;2023-06-22T11:45:06;23.17;;;12.45;;
13061;SDS011;6597;52.218;9.882;2023-06-22T11:47:33;22.35;;;12.32;;
13061;SDS011;6597;52.218;9.882;2023-06-22T11:50:00;23.63;;;12.57;;
13061;SDS011;6597;52.218;9.882;2023-06-22T11:52:26;21.70;;;11.20;;
13061;SDS011;6597;52.218;9.882;2023-06-22T11:54:53;18.60;;;10.48;;
13061;SDS011;6597;52.218;9.882;2023-06-22T11:57:19;13.55;;;9.63;;
13061;SDS011;6597;52.218;9.882;2023-06-22T11:59:46;14.15;;;10.27;;
13061;SDS011;6597;52.218;9.882;2023-06-22T12:02:14;11.05;;;9.60;;
13061;SDS011;6597;52.218;9.882;2023-06-22T12:04:40;15.68;;;10.88;;
13061;SDS011;6597;52.218;9.882;2023-06-22T12:07:07;13.32;;;9.40;;
13061;SDS011;6597;52.218;9.882;2023-06-22T12:09:33;14.90;;;10.10;;
13061;SDS011;6597;52.218;9.882;2023-06-22T12:12:00;12.25;;;9.32;;
13061;SDS011;6597;52.218;9.882;2023-06-22T12:14:26;16.92;;;10.15;;
13061;SDS011;6597;52.218;9.882;2023-06-22T12:16:53;15.20;;;9.40;;
13061;SDS011;6597;52.218;9.882;2023-06-22T12:19:21;12.70;;;9.00;;
13061;SDS011;6597;52.218;9.882;2023-06-22T12:21:47;12.25;;;9.00;;
13061;SDS011;6597;52.218;9.882;2023-06-22T12:24:14;12.43;;;9.05;;
13061;SDS011;6597;52.218;9.882;2023-06-22T12:26:40;12.80;;;8.65;;
13061;SDS011;6597;52.218;9.882;2023-06-22T12:29:07;14.18;;;8.82;;
13061;SDS011;6597;52.218;9.882;2023-06-22T12:31:35;12.23;;;8.98;;
13061;SDS011;6597;52.218;9.882;2023-06-22T12:34:02;12.93;;;10.13;;
13061;SDS011;6597;52.218;9.882;2023-06-22T12:36:29;12.32;;;8.68;;
13061;SDS011;6597;52.218;9.882;2023-06-22T12:38:56;12.57;;;9.75;;
13061;SDS011;6597;52.218;9.882;2023-06-22T12:41:23;12.30;;;9.07;;
13061;SDS011;6597;52.218;9.882;2023-06-22T12:43:49;13.85;;;9.88;;
13061;SDS011;6597;52.218;9.882;2023-06-22T12:46:16;14.43;;;9.35;;
13061;SDS011;6597;52.218;9.882;2023-06-22T12:48:42;16.48;;;10.13;;
13061;SDS011;6597;52.218;9.882;2023-06-22T12:51:09;17.02;;;9.65;;
13061;SDS011;6597;52.218;9.882;2023-06-22T12:53:37;14.73;;;9.88;;
13061;SDS011;6597;52.218;9.882;2023-06-22T12:56:03;14.43;;;10.32;;
13061;SDS011;6597;52.218;9.882;2023-06-22T12:58:30;16.98;;;10.10;;
13061;SDS011;6597;52.218;9.882;2023-06-22T13:00:56;13.32;;;9.95;;
13061;SDS011;6597;52.218;9.882;2023-06-22T13:03:23;12.40;;;9.18;;
13061;SDS011;6597;52.218;9.882;2023-06-22T13:05:51;14.32;;;7.75;;
13061;SDS011;6597;52.218;9.882;2023-06-22T13:08:18;13.38;;;9.07;;
13061;SDS011;6597;52.218;9.882;2023-06-22T13:10:46;10.15;;;7.72;;
13061;SDS011;6597;52.218;9.882;2023-06-22T13:13:12;13.23;;;7.50;;
13061;SDS011;6597;52.218;9.882;2023-06-22T13:15:39;11.05;;;8.38;;
13061;SDS011;6597;52.218;9.882;2023-06-22T13:18:05;13.30;;;8.52;;
13061;SDS011;6597;52.218;9.882;2023-06-22T13:20:32;11.93;;;7.95;;
13061;SDS011;6597;52.218;9.882;2023-06-22T13:22:58;9.45;;;7.50;;
13061;SDS011;6597;52.218;9.882;2023-06-22T13:25:25;8.88;;;7.45;;
13061;SDS011;6597;52.218;9.882;2023-06-22T13:27:53;10.23;;;7.82;;
13061;SDS011;6597;52.218;9.882;2023-06-22T13:30:20;11.93;;;8.43;;
13061;SDS011;6597;52.218;9.882;2023-06-22T13:32:46;11.82;;;7.95;;
13061;SDS011;6597;52.218;9.882;2023-06-22T13:35:13;8.90;;;7.25;;
13061;SDS011;6597;52.218;9.882;2023-06-22T13:37:39;12.10;;;6.97;;
13061;SDS011;6597;52.218;9.882;2023-06-22T13:40:06;10.82;;;7.22;;
13061;SDS011;6597;52.218;9.882;2023-06-22T13:42:34;9.55;;;7.05;;
13061;SDS011;6597;52.218;9.882;2023-06-22T13:45:02;7.95;;;6.63;;
13061;SDS011;6597;52.218;9.882;2023-06-22T13:47:29;8.43;;;6.45;;
13061;SDS011;6597;52.218;9.882;2023-06-22T13:49:56;13.35;;;7.75;;
13061;SDS011;6597;52.218;9.882;2023-06-22T13:52:23;8.13;;;6.50;;
13061;SDS011;6597;52.218;9.882;2023-06-22T13:54:50;11.40;;;7.07;;
13061;SDS011;6597;52.218;9.882;2023-06-22T13:57:16;16.33;;;7.53;;
13061;SDS011;6597;52.218;9.882;2023-06-22T13:59:43;14.20;;;7.57;;
13061;SDS011;6597;52.218;9.882;2023-06-22T14:02:11;13.75;;;7.00;;
13061;SDS011;6597;52.218;9.882;2023-06-22T14:04:37;9.80;;;7.65;;
13061;SDS011;6597;52.218;9.882;2023-06-22T14:07:04;10.55;;;7.63;;
13061;SDS011;6597;52.218;9.882;2023-06-22T14:09:31;9.60;;;6.82;;
13061;SDS011;6597;52.218;9.882;2023-06-22T14:11:57;10.52;;;7.90;;
13061;SDS011;6597;52.218;9.882;2023-06-22T14:14:24;10.15;;;7.65;;
13061;SDS011;6597;52.218;9.882;2023-06-22T14:16:51;10.63;;;7.68;;
13061;SDS011;6597;52.218;9.882;2023-06-22T14:19:19;9.70;;;7.20;;
13061;SDS011;6597;52.218;9.882;2023-06-22T14:21:46;12.70;;;7.57;;
13061;SDS011;6597;52.218;9.882;2023-06-22T14:24:12;12.23;;;7.30;;
13061;SDS011;6597;52.218;9.882;2023-06-22T14:26:39;9.93;;;7.53;;
13061;SDS011;6597;52.218;9.882;2023-06-22T14:29:05;10.43;;;7.88;;
13061;SDS011;6597;52.218;9.882;2023-06-22T14:31:32;8.38;;;6.80;;
13061;SDS011;6597;52.218;9.882;2023-06-22T14:34:00;10.88;;;7.22;;
13061;SDS011;6597;52.218;9.882;2023-06-22T14:36:29;11.18;;;7.80;;
13061;SDS011;6597;52.218;9.882;2023-06-22T14:38:55;11.27;;;7.60;;
13061;SDS011;6597;52.218;9.882;2023-06-22T14:41:22;8.15;;;6.68;;
13061;SDS011;6597;52.218;9.882;2023-06-22T14:44:03;10.07;;;7.25;;
13061;SDS011;6597;52.218;9.882;2023-06-22T14:46:30;13.43;;;7.97;;